createdAt,value
2023-06-16T00:00:13.013Z,7.42
2023-06-16T00:01:16.624Z,8.08
2023-06-16T00:02:22.922Z,7.53
2023-06-16T00:03:25.049Z,8.07
2023-06-16T00:04:28.500Z,8.00
2023-06-16T00:05:31.219Z,8.22
2023-06-16T00:06:33.184Z,7.68
2023-06-16T00:07:36.231Z,7.87
2023-06-16T00:08:38.746Z,8.23
2023-06-16T00:09:40.856Z,7.98
2023-06-16T00:10:42.936Z,7.48
2023-06-16T00:11:44.960Z,7.93
2023-06-16T00:12:47.022Z,7.82
2023-06-16T00:13:49.711Z,7.72
2023-06-16T00:14:51.671Z,7.45
2023-06-16T00:15:53.627Z,8.08
2023-06-16T00:16:58.520Z,8.02
2023-06-16T00:18:01.434Z,8.33
2023-06-16T00:19:03.542Z,8.08
2023-06-16T00:20:08.552Z,7.73
2023-06-16T00:21:11.175Z,8.22
2023-06-16T00:22:13.322Z,7.88
2023-06-16T00:23:17.826Z,8.00
2023-06-16T00:24:19.850Z,7.83
2023-06-16T00:25:21.863Z,7.55
2023-06-16T00:26:27.818Z,7.57
2023-06-16T00:27:29.891Z,8.20
2023-06-16T00:28:33.528Z,8.03
2023-06-16T00:29:35.852Z,8.25
2023-06-16T00:30:37.816Z,8.10
2023-06-16T00:31:39.838Z,8.20
2023-06-16T00:32:41.911Z,8.83
2023-06-16T00:33:43.892Z,8.35
2023-06-16T00:34:46.899Z,8.10
2023-06-16T00:35:48.974Z,8.40
2023-06-16T00:36:51.196Z,8.42
2023-06-16T00:37:53.160Z,8.10
2023-06-16T00:38:55.125Z,7.62
2023-06-16T00:39:57.139Z,8.08
2023-06-16T00:40:59.149Z,8.27
2023-06-16T00:42:04.381Z,8.85
2023-06-16T00:43:10.726Z,8.43
2023-06-16T00:44:12.735Z,8.43
2023-06-16T00:45:14.730Z,8.12
2023-06-16T00:46:29.030Z,8.13
2023-06-16T00:47:31.728Z,7.90
2023-06-16T00:48:33.762Z,8.65
2023-06-16T00:49:37.704Z,8.18
2023-06-16T00:50:39.825Z,8.30
2023-06-16T00:51:41.810Z,8.40
2023-06-16T00:52:43.849Z,8.13
2023-06-16T00:53:46.069Z,8.00
2023-06-16T00:54:48.123Z,8.30
2023-06-16T00:55:50.189Z,8.58
2023-06-16T00:56:52.866Z,8.15
2023-06-16T00:57:55.077Z,7.92
2023-06-16T00:58:57.473Z,8.28
2023-06-16T00:59:59.640Z,8.93
2023-06-16T01:01:01.658Z,8.62
2023-06-16T01:02:03.736Z,8.20
2023-06-16T01:03:06.037Z,8.50
2023-06-16T01:04:08.222Z,8.43
2023-06-16T01:05:10.282Z,8.38
2023-06-16T01:06:35.064Z,8.33
2023-06-16T01:07:41.050Z,8.52
2023-06-16T01:08:52.789Z,8.77
2023-06-16T01:10:03.313Z,8.85
2023-06-16T01:11:28.825Z,8.13
2023-06-16T01:12:40.612Z,8.23
2023-06-16T01:13:48.361Z,8.42
2023-06-16T01:14:54.690Z,8.27
2023-06-16T01:15:57.030Z,8.53
2023-06-16T01:16:59.290Z,8.47
2023-06-16T01:18:04.636Z,8.00
2023-06-16T01:19:10.729Z,8.18
2023-06-16T01:20:43.051Z,8.22
2023-06-16T01:21:58.712Z,8.13
2023-06-16T01:23:06.520Z,8.55
2023-06-16T01:24:18.394Z,7.57
2023-06-16T01:25:23.806Z,8.15
2023-06-16T01:26:27.504Z,7.95
2023-06-16T01:27:31.179Z,9.08
2023-06-16T01:28:33.578Z,9.53
2023-06-16T01:29:37.565Z,8.75
2023-06-16T01:30:43.698Z,8.67
2023-06-16T01:31:45.765Z,8.87
2023-06-16T01:32:48.316Z,8.60
2023-06-16T01:33:50.394Z,9.27
2023-06-16T01:34:52.600Z,10.23
2023-06-16T01:35:54.761Z,9.32
2023-06-16T01:36:56.774Z,8.63
2023-06-16T01:37:58.762Z,8.78
2023-06-16T01:39:01.467Z,8.32
2023-06-16T01:40:04.675Z,8.73
2023-06-16T01:41:06.918Z,8.65
2023-06-16T01:42:08.966Z,8.73
2023-06-16T01:43:11.119Z,8.70
2023-06-16T01:44:13.141Z,9.43
2023-06-16T01:45:16.134Z,9.92
2023-06-16T01:46:18.276Z,9.60
2023-06-16T01:47:21.125Z,8.90
2023-06-16T01:48:23.496Z,8.38
2023-06-16T01:49:25.618Z,9.00
2023-06-16T01:50:27.603Z,8.47
2023-06-16T01:51:29.564Z,8.52
2023-06-16T01:52:31.541Z,8.12
2023-06-16T01:53:33.556Z,8.87
2023-06-16T01:54:35.633Z,8.60
2023-06-16T01:55:37.747Z,9.13
2023-06-16T01:56:39.720Z,9.42
2023-06-16T01:57:44.632Z,8.22
2023-06-16T01:58:46.605Z,8.37
2023-06-16T01:59:51.628Z,9.17
2023-06-16T02:00:58.835Z,8.72
2023-06-16T02:02:07.674Z,8.70
2023-06-16T02:03:17.173Z,8.83
2023-06-16T02:04:21.493Z,8.87
2023-06-16T02:05:24.841Z,8.53
2023-06-16T02:06:35.034Z,8.45
2023-06-16T02:07:39.538Z,8.68
2023-06-16T02:08:41.552Z,8.92
2023-06-16T02:09:43.936Z,8.72
2023-06-16T02:10:46.056Z,8.62
2023-06-16T02:11:48.070Z,8.82
2023-06-16T02:12:50.095Z,8.32
2023-06-16T02:13:52.540Z,8.83
2023-06-16T02:14:54.628Z,9.17
2023-06-16T02:15:56.876Z,8.65
2023-06-16T02:16:58.919Z,8.70
2023-06-16T02:18:00.934Z,9.48
2023-06-16T02:19:02.931Z,9.22
2023-06-16T02:20:07.854Z,9.27
2023-06-16T02:21:09.869Z,8.63
2023-06-16T02:22:17.181Z,8.97
2023-06-16T02:23:19.150Z,8.45
2023-06-16T02:24:21.192Z,8.88
2023-06-16T02:25:23.262Z,9.18
2023-06-16T02:26:25.675Z,9.20
2023-06-16T02:27:27.948Z,8.68
2023-06-16T02:28:29.921Z,8.63
2023-06-16T02:29:32.652Z,9.03
2023-06-16T02:30:34.734Z,8.80
2023-06-16T02:31:37.032Z,8.43
2023-06-16T02:32:46.180Z,8.57
2023-06-16T02:33:55.862Z,8.77
2023-06-16T02:34:58.834Z,9.38
2023-06-16T02:36:00.819Z,9.10
2023-06-16T02:37:02.936Z,8.78
2023-06-16T02:38:04.963Z,8.68
2023-06-16T02:39:06.973Z,8.62
2023-06-16T02:40:09.416Z,8.73
2023-06-16T02:41:11.432Z,8.82
2023-06-16T02:42:13.764Z,8.45
2023-06-16T02:43:15.774Z,8.50
2023-06-16T02:44:17.751Z,8.62
2023-06-16T02:45:19.884Z,8.53
2023-06-16T02:46:26.002Z,8.25
2023-06-16T02:47:28.039Z,8.40
2023-06-16T02:48:32.743Z,8.40
2023-06-16T02:49:34.890Z,8.38
2023-06-16T02:50:37.144Z,9.18
2023-06-16T02:51:39.613Z,8.42
2023-06-16T02:52:42.508Z,8.32
2023-06-16T02:53:46.471Z,8.92
2023-06-16T02:54:48.510Z,8.63
2023-06-16T02:55:50.485Z,8.45
2023-06-16T02:56:52.485Z,8.73
2023-06-16T02:57:54.527Z,8.67
2023-06-16T02:58:56.754Z,8.53
2023-06-16T03:00:00.396Z,8.95
2023-06-16T03:01:02.987Z,8.83
2023-06-16T03:02:05.333Z,9.93
2023-06-16T03:03:08.711Z,9.42
2023-06-16T03:04:11.640Z,9.03
2023-06-16T03:05:15.786Z,9.20
2023-06-16T03:06:21.061Z,8.67
2023-06-16T03:07:23.686Z,9.50
2023-06-16T03:08:25.992Z,9.85
2023-06-16T03:09:27.965Z,9.42
2023-06-16T03:10:30.240Z,9.03
2023-06-16T03:11:32.969Z,8.65
2023-06-16T03:12:35.021Z,8.77
2023-06-16T03:13:38.254Z,8.85
2023-06-16T03:14:40.259Z,9.08
2023-06-16T03:15:43.819Z,8.63
2023-06-16T03:16:49.341Z,8.80
2023-06-16T03:17:51.427Z,8.68
2023-06-16T03:18:53.419Z,8.43
2023-06-16T03:19:55.418Z,8.58
2023-06-16T03:20:57.565Z,8.95
2023-06-16T03:21:59.610Z,8.78
2023-06-16T03:23:02.128Z,8.82
2023-06-16T03:24:04.275Z,8.63
2023-06-16T03:25:06.647Z,9.08
2023-06-16T03:26:08.711Z,9.17
2023-06-16T03:27:12.031Z,9.00
2023-06-16T03:28:14.551Z,8.37
2023-06-16T03:29:16.558Z,8.90
2023-06-16T03:30:19.235Z,8.48
2023-06-16T03:31:24.421Z,8.68
2023-06-16T03:32:26.467Z,8.65
2023-06-16T03:33:30.621Z,8.85
2023-06-16T03:34:34.147Z,9.43
2023-06-16T03:35:36.123Z,9.73
2023-06-16T03:36:40.301Z,9.95
2023-06-16T03:37:42.267Z,10.02
2023-06-16T03:38:44.319Z,9.02
2023-06-16T03:39:46.289Z,8.42
2023-06-16T03:40:48.382Z,9.33
2023-06-16T03:41:50.478Z,9.62
2023-06-16T03:42:52.461Z,9.33
2023-06-16T03:43:54.468Z,8.33
2023-06-16T03:44:56.471Z,9.33
2023-06-16T03:45:58.541Z,9.00
2023-06-16T03:47:00.590Z,9.45
2023-06-16T03:48:09.967Z,8.55
2023-06-16T03:49:13.203Z,8.65
2023-06-16T03:50:15.528Z,9.35
2023-06-16T03:51:18.239Z,9.35
2023-06-16T03:52:20.342Z,8.58
2023-06-16T03:53:22.454Z,8.43
2023-06-16T03:54:24.544Z,8.73
2023-06-16T03:55:26.622Z,9.47
2023-06-16T03:56:28.618Z,9.13
2023-06-16T03:57:30.628Z,9.50
2023-06-16T03:58:32.780Z,9.13
2023-06-16T03:59:34.846Z,9.47
2023-06-16T04:00:37.605Z,10.03
2023-06-16T04:01:39.713Z,9.48
2023-06-16T04:02:42.569Z,9.53
2023-06-16T04:03:45.398Z,9.08
2023-06-16T04:04:48.760Z,8.15
2023-06-16T04:05:51.060Z,8.77
2023-06-16T04:06:53.145Z,8.83
2023-06-16T04:07:58.395Z,9.22
2023-06-16T04:09:00.403Z,8.68
2023-06-16T04:10:02.743Z,8.72
2023-06-16T04:11:05.244Z,8.45
2023-06-16T04:12:07.564Z,8.35
2023-06-16T04:13:09.548Z,8.60
2023-06-16T04:14:11.798Z,8.78
2023-06-16T04:15:13.850Z,9.18
2023-06-16T04:16:16.060Z,8.45
2023-06-16T04:17:21.062Z,9.03
2023-06-16T04:18:26.186Z,8.42
2023-06-16T04:19:28.157Z,8.70
2023-06-16T04:20:30.162Z,8.95
2023-06-16T04:21:32.916Z,8.10
2023-06-16T04:22:34.952Z,7.88
2023-06-16T04:23:37.396Z,8.13
2023-06-16T04:24:39.457Z,8.32
2023-06-16T04:25:41.768Z,8.97
2023-06-16T04:26:43.767Z,8.20
2023-06-16T04:27:47.741Z,8.57
2023-06-16T04:28:54.730Z,8.50
2023-06-16T04:29:58.494Z,8.42
2023-06-16T04:31:01.662Z,7.95
2023-06-16T04:32:04.149Z,7.73
2023-06-16T04:33:06.667Z,8.37
2023-06-16T04:34:12.702Z,8.53
2023-06-16T04:35:14.668Z,8.72
2023-06-16T04:36:18.335Z,8.33
2023-06-16T04:37:20.343Z,8.13
2023-06-16T04:38:22.627Z,8.55
2023-06-16T04:39:25.013Z,8.42
2023-06-16T04:40:30.755Z,8.12
2023-06-16T04:41:36.473Z,8.55
2023-06-16T04:42:38.880Z,8.85
2023-06-16T04:43:40.859Z,8.37
2023-06-16T04:44:43.101Z,8.32
2023-06-16T04:45:45.140Z,8.82
2023-06-16T04:46:47.113Z,8.53
2023-06-16T04:47:51.682Z,8.50
2023-06-16T04:48:53.775Z,8.25
2023-06-16T04:49:55.742Z,8.83
2023-06-16T04:50:58.597Z,8.92
2023-06-16T04:52:00.634Z,9.10
2023-06-16T04:53:06.464Z,9.27
2023-06-16T04:54:08.477Z,8.88
2023-06-16T04:55:10.523Z,8.80
2023-06-16T04:56:12.512Z,9.08
2023-06-16T04:57:14.692Z,9.33
2023-06-16T04:58:16.825Z,8.98
2023-06-16T04:59:23.736Z,9.15
2023-06-16T05:00:29.071Z,8.73
2023-06-16T05:01:31.090Z,9.57
2023-06-16T05:02:33.641Z,8.77
2023-06-16T05:03:36.287Z,9.12
2023-06-16T05:04:39.622Z,9.27
2023-06-16T05:05:41.674Z,8.95
2023-06-16T05:06:43.869Z,8.97
2023-06-16T05:07:45.851Z,10.03
2023-06-16T05:08:47.870Z,10.42
2023-06-16T05:09:49.835Z,9.90
2023-06-16T05:10:51.800Z,9.93
2023-06-16T05:11:53.803Z,9.82
2023-06-16T05:12:55.907Z,10.13
2023-06-16T05:13:57.912Z,10.77
2023-06-16T05:14:59.890Z,9.75
2023-06-16T05:16:01.855Z,9.03
2023-06-16T05:17:04.004Z,9.45
2023-06-16T05:18:06.405Z,9.33
2023-06-16T05:19:08.741Z,9.42
2023-06-16T05:20:11.318Z,9.22
2023-06-16T05:21:13.297Z,9.55
2023-06-16T05:22:15.468Z,9.43
2023-06-16T05:23:17.493Z,9.03
2023-06-16T05:24:19.481Z,9.60
2023-06-16T05:25:24.506Z,9.90
2023-06-16T05:26:29.266Z,10.07
2023-06-16T05:27:31.235Z,9.40
2023-06-16T05:28:33.210Z,9.68
2023-06-16T05:29:35.215Z,9.63
2023-06-16T05:30:37.343Z,8.97
2023-06-16T05:31:39.432Z,9.18
2023-06-16T05:32:41.722Z,9.40
2023-06-16T05:33:43.791Z,9.47
2023-06-16T05:34:46.236Z,9.37
2023-06-16T05:35:48.207Z,9.27
2023-06-16T05:36:50.239Z,8.88
2023-06-16T05:37:52.232Z,9.53
2023-06-16T05:38:54.238Z,9.02
2023-06-16T05:39:56.253Z,8.95
2023-06-16T05:40:58.360Z,9.12
2023-06-16T05:42:00.354Z,10.25
2023-06-16T05:43:02.327Z,9.98
2023-06-16T05:44:04.335Z,9.07
2023-06-16T05:45:06.914Z,9.97
2023-06-16T05:46:08.982Z,9.62
2023-06-16T05:47:11.234Z,9.07
2023-06-16T05:48:13.340Z,9.15
2023-06-16T05:49:15.725Z,9.33
2023-06-16T05:50:17.973Z,9.70
2023-06-16T05:51:20.250Z,9.73
2023-06-16T05:52:22.289Z,9.32
2023-06-16T05:53:24.319Z,9.13
2023-06-16T05:54:26.382Z,9.38
2023-06-16T05:55:28.453Z,9.05
2023-06-16T05:56:30.690Z,9.48
2023-06-16T05:57:32.749Z,10.12
2023-06-16T05:58:36.919Z,9.97
2023-06-16T05:59:38.996Z,9.52
2023-06-16T06:00:41.999Z,9.85
2023-06-16T06:01:44.047Z,9.35
2023-06-16T06:02:46.285Z,9.53
2023-06-16T06:03:48.686Z,9.43
2023-06-16T06:04:51.165Z,9.05
2023-06-16T06:05:53.172Z,8.85
2023-06-16T06:06:55.334Z,9.43
2023-06-16T06:07:57.372Z,9.45
2023-06-16T06:08:59.474Z,10.07
2023-06-16T06:10:01.680Z,9.92
2023-06-16T06:11:06.094Z,10.88
2023-06-16T06:12:09.481Z,9.78
2023-06-16T06:13:11.512Z,9.32
2023-06-16T06:14:19.294Z,9.60
2023-06-16T06:15:21.324Z,9.80
2023-06-16T06:16:23.500Z,9.43
2023-06-16T06:17:25.768Z,9.20
2023-06-16T06:18:27.819Z,9.82
2023-06-16T06:19:29.852Z,9.87
2023-06-16T06:20:31.869Z,9.55
2023-06-16T06:21:38.148Z,9.05
2023-06-16T06:22:40.166Z,9.63
2023-06-16T06:23:42.137Z,9.73
2023-06-16T06:24:44.105Z,9.93
2023-06-16T06:25:46.212Z,9.73
2023-06-16T06:26:48.253Z,9.13
2023-06-16T06:27:50.233Z,9.63
2023-06-16T06:28:52.260Z,9.12
2023-06-16T06:29:54.293Z,9.37
2023-06-16T06:30:56.271Z,9.12
2023-06-16T06:31:58.282Z,9.75
2023-06-16T06:33:01.385Z,10.15
2023-06-16T06:34:03.460Z,9.20
2023-06-16T06:35:05.899Z,9.15
2023-06-16T06:36:08.062Z,9.15
2023-06-16T06:37:17.539Z,9.50
2023-06-16T06:38:19.555Z,9.65
2023-06-16T06:39:21.642Z,9.27
2023-06-16T06:40:23.841Z,9.07
2023-06-16T06:41:26.706Z,9.47
2023-06-16T06:42:29.074Z,9.30
2023-06-16T06:43:31.043Z,8.78
2023-06-16T06:44:33.008Z,9.67
2023-06-16T06:45:35.000Z,9.08
2023-06-16T06:46:37.048Z,9.83
2023-06-16T06:47:40.188Z,9.77
2023-06-16T06:48:42.608Z,9.37
2023-06-16T06:49:44.648Z,9.40
2023-06-16T06:50:47.319Z,10.22
2023-06-16T06:51:49.338Z,10.12
2023-06-16T06:52:53.580Z,9.85
2023-06-16T06:53:55.877Z,10.00
2023-06-16T06:54:58.062Z,10.00
2023-06-16T06:56:00.051Z,10.67
2023-06-16T06:57:02.193Z,9.53
2023-06-16T06:58:04.299Z,10.23
2023-06-16T06:59:06.539Z,10.15
2023-06-16T07:00:09.110Z,10.63
2023-06-16T07:01:11.161Z,10.15
2023-06-16T07:02:13.226Z,9.58
2023-06-16T07:03:15.412Z,10.15
2023-06-16T07:04:17.755Z,11.03
2023-06-16T07:05:19.989Z,10.12
2023-06-16T07:06:22.439Z,10.67
2023-06-16T07:07:24.517Z,10.93
2023-06-16T07:08:26.634Z,10.40
2023-06-16T07:09:31.271Z,9.90
2023-06-16T07:10:34.094Z,9.95
2023-06-16T07:11:38.957Z,11.05
2023-06-16T07:12:42.099Z,9.63
2023-06-16T07:13:44.139Z,9.32
2023-06-16T07:14:46.964Z,9.92
2023-06-16T07:15:49.094Z,9.98
2023-06-16T07:16:51.408Z,9.93
2023-06-16T07:17:53.464Z,9.83
2023-06-16T07:18:55.477Z,10.12
2023-06-16T07:19:57.541Z,10.25
2023-06-16T07:20:59.532Z,10.55
2023-06-16T07:22:02.003Z,10.53
2023-06-16T07:23:04.035Z,11.07
2023-06-16T07:24:07.172Z,10.05
2023-06-16T07:25:09.621Z,11.10
2023-06-16T07:26:11.680Z,10.32
2023-06-16T07:27:13.787Z,9.78
2023-06-16T07:28:15.868Z,9.57
2023-06-16T07:29:19.153Z,9.37
2023-06-16T07:30:21.330Z,9.60
2023-06-16T07:31:23.520Z,9.87
2023-06-16T07:32:25.662Z,10.03
2023-06-16T07:33:27.821Z,9.68
2023-06-16T07:34:34.206Z,10.50
2023-06-16T07:35:37.251Z,9.58
2023-06-16T07:36:40.609Z,9.83
2023-06-16T07:37:42.600Z,9.73
2023-06-16T07:38:44.705Z,9.88
2023-06-16T07:39:46.722Z,9.85
2023-06-16T07:40:48.778Z,10.90
2023-06-16T07:41:50.846Z,10.23
2023-06-16T07:42:52.838Z,10.55
2023-06-16T07:43:54.893Z,10.02
2023-06-16T07:44:56.908Z,11.17
2023-06-16T07:45:59.020Z,11.40
2023-06-16T07:47:01.162Z,10.05
2023-06-16T07:48:04.041Z,10.80
2023-06-16T07:49:06.073Z,11.02
2023-06-16T07:50:08.842Z,9.93
2023-06-16T07:51:10.912Z,10.87
2023-06-16T07:52:16.969Z,10.18
2023-06-16T07:53:19.835Z,9.72
2023-06-16T07:54:21.917Z,9.93
2023-06-16T07:55:23.911Z,10.77
2023-06-16T07:56:25.940Z,10.70
2023-06-16T07:57:29.097Z,10.43
2023-06-16T07:58:33.181Z,10.48
2023-06-16T07:59:35.336Z,10.37
2023-06-16T08:00:37.311Z,9.42
2023-06-16T08:01:39.367Z,10.00
2023-06-16T08:02:41.641Z,9.50
2023-06-16T08:03:48.049Z,9.80
2023-06-16T08:04:50.307Z,10.70
2023-06-16T08:05:52.298Z,10.58
2023-06-16T08:06:54.302Z,9.67
2023-06-16T08:07:56.278Z,9.83
2023-06-16T08:08:58.315Z,9.20
2023-06-16T08:10:00.323Z,9.32
2023-06-16T08:11:02.716Z,9.95
2023-06-16T08:12:05.952Z,10.23
2023-06-16T08:13:08.023Z,9.70
2023-06-16T08:14:10.041Z,9.07
2023-06-16T08:15:12.205Z,9.37
2023-06-16T08:16:14.256Z,10.00
2023-06-16T08:17:16.619Z,11.27
2023-06-16T08:18:19.264Z,9.45
2023-06-16T08:19:21.286Z,9.87
2023-06-16T08:20:27.052Z,8.97
2023-06-16T08:21:29.031Z,9.45
2023-06-16T08:22:31.032Z,9.50
2023-06-16T08:23:33.036Z,9.45
2023-06-16T08:24:35.164Z,9.13
2023-06-16T08:25:37.357Z,9.28
2023-06-16T08:26:41.818Z,9.55
2023-06-16T08:27:44.114Z,9.02
2023-06-16T08:28:46.169Z,9.40
2023-06-16T08:29:48.936Z,9.53
2023-06-16T08:30:51.099Z,9.80
2023-06-16T08:31:53.080Z,9.75
2023-06-16T08:32:55.137Z,9.52
2023-06-16T08:33:58.125Z,9.55
2023-06-16T08:35:00.163Z,10.23
2023-06-16T08:36:02.470Z,9.98
2023-06-16T08:37:11.068Z,9.73
2023-06-16T08:38:22.691Z,9.30
2023-06-16T08:39:24.672Z,9.75
2023-06-16T08:40:29.811Z,9.52
2023-06-16T08:41:31.902Z,9.77
2023-06-16T08:42:34.585Z,9.53
2023-06-16T08:43:39.630Z,9.83
2023-06-16T08:44:41.664Z,10.35
2023-06-16T08:45:46.389Z,9.83
2023-06-16T08:46:49.034Z,9.02
2023-06-16T08:47:51.448Z,9.67
2023-06-16T08:48:53.585Z,9.57
2023-06-16T08:49:57.455Z,9.17
2023-06-16T08:51:00.768Z,9.67
2023-06-16T08:52:07.473Z,9.42
2023-06-16T08:53:11.231Z,9.20
2023-06-16T08:54:14.210Z,9.05
2023-06-16T08:55:16.625Z,9.30
2023-06-16T08:56:19.270Z,8.68
2023-06-16T08:57:21.269Z,9.02
2023-06-16T08:58:23.268Z,9.65
2023-06-16T08:59:26.318Z,8.60
2023-06-16T09:00:28.952Z,8.90
2023-06-16T09:01:31.250Z,9.35
2023-06-16T09:02:34.662Z,9.25
2023-06-16T09:03:38.711Z,9.63
2023-06-16T09:04:42.884Z,8.77
2023-06-16T09:05:44.994Z,9.30
2023-06-16T09:06:47.232Z,9.20
2023-06-16T09:07:51.243Z,9.55
2023-06-16T09:08:56.073Z,9.52
2023-06-16T09:09:58.103Z,8.98
2023-06-16T09:11:06.209Z,9.32
2023-06-16T09:12:14.208Z,9.18
2023-06-16T09:13:17.490Z,9.37
2023-06-16T09:14:21.564Z,9.98
2023-06-16T09:15:24.184Z,9.78
2023-06-16T09:16:26.274Z,9.28
2023-06-16T09:17:34.919Z,9.22
2023-06-16T09:18:45.986Z,9.38
2023-06-16T09:19:49.219Z,9.88
2023-06-16T09:20:54.558Z,9.22
2023-06-16T09:21:58.166Z,8.75
2023-06-16T09:23:01.126Z,9.30
2023-06-16T09:24:03.353Z,9.50
2023-06-16T09:25:07.038Z,9.55
2023-06-16T09:26:15.383Z,9.07
2023-06-16T09:27:17.955Z,8.93
2023-06-16T09:28:20.137Z,9.07
2023-06-16T09:29:23.386Z,8.50
2023-06-16T09:30:31.947Z,8.72
2023-06-16T09:31:34.024Z,9.43
2023-06-16T09:32:39.341Z,8.77
2023-06-16T09:33:42.081Z,9.05
2023-06-16T09:34:45.138Z,9.22
2023-06-16T09:35:49.154Z,9.28
2023-06-16T09:36:52.287Z,8.97
2023-06-16T09:37:58.520Z,9.00
2023-06-16T09:39:00.878Z,8.97
2023-06-16T09:40:08.305Z,8.78
2023-06-16T09:41:17.252Z,9.23
2023-06-16T09:42:19.855Z,9.52
2023-06-16T09:43:24.838Z,8.80
2023-06-16T09:44:27.032Z,9.57
2023-06-16T09:45:31.386Z,9.45
2023-06-16T09:46:33.578Z,9.50
2023-06-16T09:47:38.303Z,9.93
2023-06-16T09:48:50.200Z,9.52
2023-06-16T09:49:54.877Z,9.52
2023-06-16T09:50:58.745Z,9.63
2023-06-16T09:52:00.784Z,8.98
2023-06-16T09:53:07.569Z,8.68
2023-06-16T09:54:09.872Z,9.45
2023-06-16T09:55:15.815Z,8.88
2023-06-16T09:56:18.301Z,8.88
2023-06-16T09:57:20.271Z,9.33
2023-06-16T09:58:33.697Z,9.18
2023-06-16T09:59:44.667Z,9.65
2023-06-16T10:00:46.842Z,9.38
2023-06-16T10:01:48.840Z,9.02
2023-06-16T10:02:54.247Z,9.43
2023-06-16T10:03:57.343Z,9.43
2023-06-16T10:05:00.413Z,9.17
2023-06-16T10:06:03.207Z,9.52
2023-06-16T10:07:06.092Z,9.42
2023-06-16T10:08:08.555Z,9.32
2023-06-16T10:09:11.343Z,8.60
2023-06-16T10:10:13.481Z,8.45
2023-06-16T10:11:19.025Z,9.08
2023-06-16T10:12:21.412Z,8.85
2023-06-16T10:13:23.486Z,9.37
2023-06-16T10:14:31.391Z,9.72
2023-06-16T10:15:38.810Z,9.82
2023-06-16T10:16:40.870Z,9.18
2023-06-16T10:17:42.946Z,9.10
2023-06-16T10:18:48.560Z,9.42
2023-06-16T10:19:52.050Z,10.20
2023-06-16T10:20:54.164Z,9.98
2023-06-16T10:21:56.167Z,9.33
2023-06-16T10:22:58.138Z,9.62
2023-06-16T10:24:02.256Z,9.30
2023-06-16T10:25:07.300Z,9.60
2023-06-16T10:26:09.299Z,8.98
2023-06-16T10:27:11.867Z,9.17
2023-06-16T10:28:15.712Z,9.32
2023-06-16T10:29:18.799Z,8.73
2023-06-16T10:30:21.711Z,8.77
2023-06-16T10:31:26.497Z,9.45
2023-06-16T10:32:28.579Z,9.40
2023-06-16T10:33:33.156Z,8.58
2023-06-16T10:34:39.401Z,9.27
2023-06-16T10:35:49.864Z,9.13
2023-06-16T10:36:55.798Z,8.33
2023-06-16T10:37:57.809Z,8.73
2023-06-16T10:39:09.405Z,8.52
2023-06-16T10:40:15.453Z,8.83
2023-06-16T10:41:18.315Z,9.52
2023-06-16T10:42:20.485Z,8.62
2023-06-16T10:43:26.507Z,8.37
2023-06-16T10:44:30.422Z,8.85
2023-06-16T10:45:40.544Z,9.40
2023-06-16T10:46:42.729Z,9.07
2023-06-16T10:47:56.393Z,8.63
2023-06-16T10:49:21.637Z,8.68
2023-06-16T10:50:48.054Z,8.37
2023-06-16T10:51:50.591Z,8.93
2023-06-16T10:52:55.776Z,8.72
2023-06-16T10:53:57.828Z,9.45
2023-06-16T10:55:33.423Z,9.88
2023-06-16T10:57:11.347Z,9.07
2023-06-16T10:58:15.966Z,9.03
2023-06-16T10:59:18.154Z,8.92
2023-06-16T11:00:20.394Z,9.40
2023-06-16T11:01:24.504Z,9.92
2023-06-16T11:02:31.847Z,10.43
2023-06-16T11:03:37.747Z,10.17
2023-06-16T11:04:39.880Z,9.47
2023-06-16T11:05:42.020Z,9.27
2023-06-16T11:07:16.325Z,9.50
2023-06-16T11:08:32.145Z,9.00
2023-06-16T11:09:34.141Z,9.67
2023-06-16T11:10:54.521Z,9.87
2023-06-16T11:11:59.423Z,9.12
2023-06-16T11:13:01.682Z,8.97
2023-06-16T11:14:03.694Z,8.83
2023-06-16T11:15:06.208Z,9.25
2023-06-16T11:16:08.258Z,8.52
2023-06-16T11:17:10.353Z,8.47
2023-06-16T11:18:13.763Z,8.60
2023-06-16T11:19:19.071Z,8.98
2023-06-16T11:20:21.828Z,8.63
2023-06-16T11:21:31.689Z,8.10
2023-06-16T11:22:34.669Z,8.47
2023-06-16T11:23:36.787Z,8.70
2023-06-16T11:24:41.304Z,8.98
2023-06-16T11:25:43.325Z,9.08
2023-06-16T11:26:45.344Z,8.60
2023-06-16T11:27:47.364Z,8.45
2023-06-16T11:28:49.565Z,8.38
2023-06-16T11:29:55.083Z,8.68
2023-06-16T11:30:57.100Z,8.05
2023-06-16T11:32:00.629Z,8.60
2023-06-16T11:33:03.113Z,8.47
2023-06-16T11:34:05.532Z,7.98
2023-06-16T11:35:07.982Z,8.18
2023-06-16T11:36:31.800Z,8.78
2023-06-16T11:38:03.060Z,7.77
2023-06-16T11:39:09.388Z,8.60
2023-06-16T11:40:12.854Z,8.67
2023-06-16T11:41:19.353Z,8.32
2023-06-16T11:42:21.390Z,8.50
2023-06-16T11:43:23.950Z,8.23
2023-06-16T11:44:26.519Z,8.45
2023-06-16T11:45:29.594Z,8.40
2023-06-16T11:46:34.275Z,8.57
2023-06-16T11:47:36.419Z,8.08
2023-06-16T11:48:39.180Z,8.62
2023-06-16T11:49:41.193Z,8.95
2023-06-16T11:50:43.225Z,8.83
2023-06-16T11:51:45.235Z,8.67
2023-06-16T11:52:47.203Z,8.83
2023-06-16T11:53:49.187Z,8.55
2023-06-16T11:54:51.170Z,8.40
2023-06-16T11:55:53.234Z,8.40
2023-06-16T11:56:59.090Z,8.20
2023-06-16T11:58:01.107Z,7.92
2023-06-16T11:59:04.719Z,8.23
2023-06-16T12:00:08.217Z,8.32
2023-06-16T12:01:14.136Z,8.58
2023-06-16T12:02:16.495Z,8.43
2023-06-16T12:03:18.641Z,8.68
2023-06-16T12:04:20.958Z,8.98
2023-06-16T12:05:28.363Z,8.65
2023-06-16T12:06:30.788Z,8.75
2023-06-16T12:07:32.986Z,8.48
2023-06-16T12:08:48.090Z,8.23
2023-06-16T12:09:55.463Z,8.75
2023-06-16T12:10:57.448Z,8.35
2023-06-16T12:11:59.619Z,8.47
2023-06-16T12:13:01.789Z,7.85
2023-06-16T12:14:03.818Z,8.37
2023-06-16T12:15:06.410Z,7.97
2023-06-16T12:16:09.044Z,7.62
2023-06-16T12:17:11.137Z,7.68
2023-06-16T12:18:13.263Z,7.60
2023-06-16T12:19:21.613Z,8.00
2023-06-16T12:20:23.966Z,8.08
2023-06-16T12:21:29.840Z,7.73
2023-06-16T12:22:40.551Z,7.75
2023-06-16T12:23:42.550Z,7.38
2023-06-16T12:24:44.567Z,7.80
2023-06-16T12:25:49.959Z,7.85
2023-06-16T12:26:53.225Z,8.22
2023-06-16T12:27:58.406Z,8.00
2023-06-16T12:29:08.994Z,8.08
2023-06-16T12:30:11.799Z,7.33
2023-06-16T12:31:13.814Z,7.45
2023-06-16T12:32:16.156Z,7.60
2023-06-16T12:33:18.339Z,7.40
2023-06-16T12:34:37.173Z,7.58
2023-06-16T12:35:39.948Z,7.40
2023-06-16T12:36:42.436Z,7.45
2023-06-16T12:37:44.444Z,6.97
2023-06-16T12:38:49.885Z,7.40
2023-06-16T12:40:02.003Z,6.80
2023-06-16T12:41:04.064Z,7.13
2023-06-16T12:42:06.964Z,7.33
2023-06-16T12:43:24.509Z,6.87
2023-06-16T12:44:50.474Z,6.83
2023-06-16T12:45:53.093Z,7.57
2023-06-16T12:46:55.152Z,6.63
2023-06-16T12:47:57.179Z,6.95
2023-06-16T12:48:59.359Z,7.38
2023-06-16T12:50:02.181Z,7.22
2023-06-16T12:51:04.153Z,7.13
2023-06-16T12:52:07.325Z,7.20
2023-06-16T12:53:10.222Z,7.73
2023-06-16T12:54:12.837Z,7.68
2023-06-16T12:55:14.911Z,7.48
2023-06-16T12:56:17.005Z,7.90
2023-06-16T12:57:19.540Z,8.05
2023-06-16T12:58:21.578Z,7.77
2023-06-16T12:59:23.585Z,7.62
2023-06-16T13:00:28.929Z,7.53
2023-06-16T13:01:31.118Z,7.60
2023-06-16T13:02:33.234Z,7.43
2023-06-16T13:03:35.872Z,7.62
2023-06-16T13:04:38.068Z,7.53
2023-06-16T13:05:40.184Z,7.52
2023-06-16T13:06:42.185Z,7.57
2023-06-16T13:07:44.377Z,7.73
2023-06-16T13:08:48.191Z,7.95
2023-06-16T13:09:50.396Z,7.18
2023-06-16T13:10:52.488Z,7.07
2023-06-16T13:11:57.127Z,7.47
2023-06-16T13:12:59.609Z,7.28
2023-06-16T13:14:03.263Z,7.13
2023-06-16T13:15:05.623Z,6.90
2023-06-16T13:16:07.686Z,7.70
2023-06-16T13:17:09.741Z,7.40
2023-06-16T13:18:11.838Z,7.37
2023-06-16T13:19:13.902Z,7.40
2023-06-16T13:20:15.955Z,7.65
2023-06-16T13:21:17.991Z,7.77
2023-06-16T13:22:19.952Z,7.28
2023-06-16T13:23:23.127Z,7.22
2023-06-16T13:24:25.193Z,7.20
2023-06-16T13:25:27.251Z,7.08
2023-06-16T13:26:29.226Z,7.08
2023-06-16T13:27:31.196Z,7.62
2023-06-16T13:28:33.198Z,8.00
2023-06-16T13:29:35.250Z,7.77
2023-06-16T13:30:37.821Z,7.28
2023-06-16T13:31:39.945Z,7.28
2023-06-16T13:32:41.999Z,7.38
2023-06-16T13:33:44.060Z,7.27
2023-06-16T13:34:46.098Z,7.25
2023-06-16T13:35:48.131Z,7.47
2023-06-16T13:36:50.136Z,7.65
2023-06-16T13:37:52.578Z,6.98
2023-06-16T13:38:54.643Z,6.92
2023-06-16T13:39:58.728Z,7.75
2023-06-16T13:41:00.842Z,7.38
2023-06-16T13:42:02.855Z,7.37
2023-06-16T13:43:06.677Z,7.92
2023-06-16T13:44:10.749Z,7.57
2023-06-16T13:45:12.765Z,7.55
2023-06-16T13:46:17.897Z,7.83
2023-06-16T13:47:19.921Z,8.05
2023-06-16T13:48:22.176Z,8.00
2023-06-16T13:49:24.207Z,7.58
2023-06-16T13:50:26.257Z,7.60
2023-06-16T13:51:28.262Z,7.90
2023-06-16T13:52:30.816Z,7.33
2023-06-16T13:53:32.893Z,7.40
2023-06-16T13:54:34.879Z,7.52
2023-06-16T13:55:37.031Z,7.82
2023-06-16T13:56:38.993Z,7.55
2023-06-16T13:57:41.005Z,7.58
2023-06-16T13:58:46.791Z,7.87
2023-06-16T13:59:48.850Z,7.95
2023-06-16T14:00:50.943Z,8.30
2023-06-16T14:01:53.053Z,7.42
2023-06-16T14:02:55.575Z,7.23
2023-06-16T14:03:57.784Z,7.27